createdAt,value
2023-04-29T00:00:34.222Z,63.17
2023-04-29T00:02:37.097Z,63.60
2023-04-29T00:04:39.146Z,63.35
2023-04-29T00:06:41.017Z,63.94
2023-04-29T00:08:42.555Z,63.94
2023-04-29T00:10:44.394Z,64.22
2023-04-29T00:12:45.984Z,64.09
2023-04-29T00:14:47.609Z,64.04
2023-04-29T00:16:50.593Z,64.72
2023-04-29T00:18:52.157Z,64.81
2023-04-29T00:20:53.914Z,64.71
2023-04-29T00:22:55.483Z,65.16
2023-04-29T00:24:57.102Z,64.71
2023-04-29T00:26:58.966Z,64.76
2023-04-29T00:29:00.536Z,64.99
2023-04-29T00:31:02.075Z,64.27
2023-04-29T00:33:05.127Z,65.04
2023-04-29T00:35:07.433Z,65.71
2023-04-29T00:37:08.978Z,64.85
2023-04-29T00:39:10.572Z,65.00
2023-04-29T00:41:12.145Z,65.63
2023-04-29T00:43:13.862Z,65.81
2023-04-29T00:45:15.548Z,65.74
2023-04-29T00:47:17.223Z,65.35
2023-04-29T00:49:21.425Z,65.19
2023-04-29T00:51:24.051Z,65.69
2023-04-29T00:53:25.733Z,65.74
2023-04-29T00:55:28.315Z,66.10
2023-04-29T00:57:30.455Z,66.43
2023-04-29T00:59:32.087Z,65.97
2023-04-29T01:01:33.996Z,66.20
2023-04-29T01:03:35.757Z,66.09
2023-04-29T01:05:38.880Z,66.01
2023-04-29T01:07:48.880Z,64.64
2023-04-29T01:10:00.632Z,65.28
2023-04-29T01:12:13.069Z,64.28
2023-04-29T01:14:15.087Z,65.69
2023-04-29T01:16:23.396Z,64.74
2023-04-29T01:18:28.122Z,66.18
2023-04-29T01:20:30.829Z,66.34
2023-04-29T01:22:33.783Z,66.32
2023-04-29T01:24:36.812Z,66.38
2023-04-29T01:26:38.858Z,67.11
2023-04-29T01:28:48.572Z,64.79
2023-04-29T01:30:56.718Z,66.90
2023-04-29T01:33:03.466Z,65.94
2023-04-29T01:35:16.190Z,65.21
2023-04-29T01:37:22.758Z,66.65
2023-04-29T01:39:33.064Z,65.76
2023-04-29T01:41:43.566Z,63.60
2023-04-29T01:43:50.121Z,66.08
2023-04-29T01:45:54.345Z,66.69
2023-04-29T01:47:57.480Z,66.69
2023-04-29T01:49:59.069Z,67.04
2023-04-29T01:52:00.627Z,67.46
2023-04-29T01:54:02.241Z,67.04
2023-04-29T01:56:04.343Z,67.22
2023-04-29T01:58:07.297Z,67.08
2023-04-29T02:00:09.402Z,67.49
2023-04-29T02:02:10.970Z,67.49
2023-04-29T02:04:12.661Z,67.27
2023-04-29T02:06:14.366Z,67.63
2023-04-29T02:08:16.243Z,67.53
2023-04-29T02:10:17.858Z,68.07
2023-04-29T02:12:19.426Z,68.06
2023-04-29T02:14:22.393Z,67.94
2023-04-29T02:16:24.533Z,67.59
2023-04-29T02:18:26.107Z,67.65
2023-04-29T02:20:27.672Z,68.17
2023-04-29T02:22:29.306Z,68.56
2023-04-29T02:24:30.862Z,67.72
2023-04-29T02:26:32.642Z,68.25
2023-04-29T02:28:34.212Z,68.00
2023-04-29T02:30:37.134Z,68.88
2023-04-29T02:32:38.924Z,68.61
2023-04-29T02:34:40.509Z,69.01
2023-04-29T02:36:42.180Z,69.16
2023-04-29T02:38:43.924Z,68.89
2023-04-29T02:40:46.744Z,69.37
2023-04-29T02:42:48.499Z,69.36
2023-04-29T02:44:50.025Z,69.00
2023-04-29T02:46:52.970Z,69.75
2023-04-29T02:48:54.454Z,69.34
2023-04-29T02:50:56.217Z,69.23
2023-04-29T02:52:57.838Z,69.69
2023-04-29T02:54:59.398Z,69.73
2023-04-29T02:57:01.057Z,69.20
2023-04-29T02:59:02.726Z,69.36
2023-04-29T03:01:04.398Z,69.61
2023-04-29T03:03:07.503Z,69.04
2023-04-29T03:05:09.712Z,69.45
2023-04-29T03:07:11.247Z,69.45
2023-04-29T03:09:12.753Z,69.47
2023-04-29T03:11:14.349Z,69.18
2023-04-29T03:13:16.209Z,69.71
2023-04-29T03:15:17.798Z,69.77
2023-04-29T03:17:19.373Z,69.29
2023-04-29T03:19:22.406Z,69.30
2023-04-29T03:21:24.140Z,70.10
2023-04-29T03:23:25.814Z,70.23
2023-04-29T03:25:27.367Z,69.96
2023-04-29T03:27:28.933Z,70.19
2023-04-29T03:29:30.745Z,70.31
2023-04-29T03:31:32.531Z,70.06
2023-04-29T03:33:34.207Z,69.91
2023-04-29T03:35:37.128Z,70.19
2023-04-29T03:37:39.202Z,70.21
2023-04-29T03:39:40.753Z,70.09
2023-04-29T03:41:42.855Z,70.49
2023-04-29T03:43:44.482Z,70.54
2023-04-29T03:45:46.134Z,70.92
2023-04-29T03:47:47.778Z,70.83
2023-04-29T03:49:49.769Z,70.81
2023-04-29T03:51:52.948Z,70.18
2023-04-29T03:53:55.628Z,70.99
2023-04-29T03:55:57.212Z,70.73
2023-04-29T03:57:58.749Z,71.29
2023-04-29T04:00:00.333Z,70.83
2023-04-29T04:02:02.902Z,71.33
2023-04-29T04:04:04.876Z,71.36
2023-04-29T04:06:06.566Z,71.56
2023-04-29T04:08:09.498Z,71.21
2023-04-29T04:10:11.239Z,71.33
2023-04-29T04:12:12.988Z,71.24
2023-04-29T04:14:15.187Z,71.37
2023-04-29T04:16:16.775Z,71.52
2023-04-29T04:18:18.433Z,71.52
2023-04-29T04:20:20.050Z,70.94
2023-04-29T04:22:21.684Z,71.70
2023-04-29T04:24:24.744Z,70.97
2023-04-29T04:26:26.286Z,71.66
2023-04-29T04:28:27.908Z,71.40
2023-04-29T04:30:29.425Z,71.73
2023-04-29T04:32:31.065Z,71.15
2023-04-29T04:34:32.615Z,71.06
2023-04-29T04:36:34.167Z,71.38
2023-04-29T04:38:35.823Z,71.61
2023-04-29T04:40:41.077Z,70.79
2023-04-29T04:42:42.644Z,71.60
2023-04-29T04:44:44.230Z,71.76
2023-04-29T04:46:45.984Z,71.71
2023-04-29T04:48:47.633Z,71.46
2023-04-29T04:50:49.200Z,71.42
2023-04-29T04:52:50.905Z,71.13
2023-04-29T04:54:52.456Z,71.86
2023-04-29T04:56:55.472Z,71.97
2023-04-29T04:58:57.022Z,71.20
2023-04-29T05:00:58.765Z,71.84
2023-04-29T05:03:00.945Z,71.34
2023-04-29T05:05:02.551Z,71.30
2023-04-29T05:07:04.154Z,71.60
2023-04-29T05:09:05.702Z,71.75
2023-04-29T05:11:07.530Z,71.93
2023-04-29T05:13:10.529Z,72.15
2023-04-29T05:15:12.256Z,72.58
2023-04-29T05:17:13.893Z,72.01
2023-04-29T05:19:15.676Z,71.74
2023-04-29T05:21:17.850Z,71.89
2023-04-29T05:23:19.520Z,72.09
2023-04-29T05:25:21.280Z,72.11
2023-04-29T05:27:22.922Z,71.70
2023-04-29T05:29:25.975Z,71.65
2023-04-29T05:31:27.910Z,71.36
2023-04-29T05:33:29.632Z,71.14
2023-04-29T05:35:31.289Z,71.38
2023-04-29T05:37:33.036Z,71.87
2023-04-29T05:39:34.652Z,72.05
2023-04-29T05:41:36.263Z,72.34
2023-04-29T05:43:37.805Z,72.18
2023-04-29T05:45:40.726Z,71.92
2023-04-29T05:47:42.347Z,72.26
2023-04-29T05:49:44.053Z,71.79
2023-04-29T05:51:45.640Z,72.06
2023-04-29T05:53:47.545Z,71.95
2023-04-29T05:55:51.074Z,72.16
2023-04-29T05:57:52.787Z,72.17
2023-04-29T05:59:54.427Z,72.38
2023-04-29T06:01:57.521Z,72.55
2023-04-29T06:03:59.297Z,72.29
2023-04-29T06:06:01.232Z,72.13
2023-04-29T06:08:04.042Z,72.20
2023-04-29T06:10:07.019Z,72.60
2023-04-29T06:12:08.708Z,72.24
2023-04-29T06:14:10.478Z,72.20
2023-04-29T06:16:12.569Z,72.69
2023-04-29T06:18:15.535Z,72.74
2023-04-29T06:20:18.237Z,72.51
2023-04-29T06:22:19.972Z,72.52
2023-04-29T06:24:21.635Z,72.96
2023-04-29T06:26:23.305Z,72.99
2023-04-29T06:28:24.948Z,73.53
2023-04-29T06:30:26.752Z,73.28
2023-04-29T06:32:28.400Z,73.60
2023-04-29T06:34:31.447Z,73.46
2023-04-29T06:36:33.002Z,73.25
2023-04-29T06:38:34.654Z,73.65
2023-04-29T06:40:36.227Z,73.66
2023-04-29T06:42:37.841Z,73.31
2023-04-29T06:44:39.539Z,72.85
2023-04-29T06:46:41.116Z,72.86
2023-04-29T06:48:42.928Z,72.74
2023-04-29T06:50:51.337Z,71.33
2023-04-29T06:52:52.929Z,72.62
2023-04-29T06:54:54.668Z,72.69
2023-04-29T06:56:56.191Z,72.55
2023-04-29T06:58:57.865Z,72.80
2023-04-29T07:00:59.519Z,72.97
2023-04-29T07:03:01.544Z,72.66
2023-04-29T07:05:03.227Z,72.37
2023-04-29T07:07:06.134Z,72.37
2023-04-29T07:09:07.752Z,71.87
2023-04-29T07:11:09.297Z,72.58
2023-04-29T07:13:10.803Z,72.57
2023-04-29T07:15:12.547Z,71.90
2023-04-29T07:17:14.320Z,72.44
2023-04-29T07:19:15.962Z,72.23
2023-04-29T07:21:17.570Z,72.19
2023-04-29T07:23:20.685Z,72.13
2023-04-29T07:25:22.349Z,73.42
2023-04-29T07:27:23.909Z,73.08
2023-04-29T07:29:25.537Z,73.44
2023-04-29T07:31:27.347Z,72.79
2023-04-29T07:33:28.932Z,72.54
2023-04-29T07:35:30.490Z,72.52
2023-04-29T07:37:32.070Z,73.17
2023-04-29T07:39:35.038Z,72.88
2023-04-29T07:41:36.651Z,73.19
2023-04-29T07:43:39.239Z,72.93
2023-04-29T07:45:42.626Z,73.32
2023-04-29T07:47:44.527Z,73.33
2023-04-29T07:49:46.103Z,73.07
2023-04-29T07:51:47.675Z,72.96
2023-04-29T07:53:49.227Z,72.64
2023-04-29T07:55:52.146Z,72.71
2023-04-29T07:57:53.779Z,72.19
2023-04-29T07:59:55.484Z,72.37
2023-04-29T08:01:57.064Z,72.05
2023-04-29T08:03:58.885Z,72.02
2023-04-29T08:06:02.176Z,72.46
2023-04-29T08:08:03.874Z,72.23
2023-04-29T08:10:06.739Z,72.66
2023-04-29T08:12:09.945Z,72.34
2023-04-29T08:14:11.696Z,72.30
2023-04-29T08:16:13.756Z,73.31
2023-04-29T08:18:15.440Z,72.89
2023-04-29T08:20:17.056Z,72.89
2023-04-29T08:22:19.232Z,73.42
2023-04-29T08:24:20.834Z,73.35
2023-04-29T08:26:23.961Z,73.26
2023-04-29T08:28:27.124Z,73.34
2023-04-29T08:30:28.782Z,72.89
2023-04-29T08:32:30.379Z,73.32
2023-04-29T08:34:32.135Z,73.08
2023-04-29T08:36:33.845Z,73.50
2023-04-29T08:38:35.384Z,73.43
2023-04-29T08:40:43.136Z,72.14
2023-04-29T08:42:47.392Z,73.58
2023-04-29T08:44:53.329Z,73.34
2023-04-29T08:46:56.016Z,72.99
2023-04-29T08:48:58.591Z,73.71
2023-04-29T08:51:00.384Z,74.54
2023-04-29T08:53:02.010Z,74.28
2023-04-29T08:55:03.972Z,74.85
2023-04-29T08:57:06.358Z,75.36
2023-04-29T08:59:10.600Z,74.86
2023-04-29T09:01:14.241Z,74.23
2023-04-29T09:03:22.192Z,73.85
2023-04-29T09:05:25.056Z,75.08
2023-04-29T09:07:28.049Z,75.48
2023-04-29T09:09:30.663Z,75.54
2023-04-29T09:11:32.538Z,75.36
2023-04-29T09:13:34.301Z,74.92
2023-04-29T09:15:36.763Z,75.14
2023-04-29T09:17:40.851Z,74.38
2023-04-29T09:19:44.853Z,74.84
2023-04-29T09:21:54.437Z,73.66
2023-04-29T09:23:57.702Z,74.77
2023-04-29T09:25:59.318Z,74.35
2023-04-29T09:28:15.217Z,71.28
2023-04-29T09:30:17.027Z,72.63
2023-04-29T09:32:19.316Z,71.88
2023-04-29T09:34:32.792Z,70.50
2023-04-29T09:36:42.411Z,70.10
2023-04-29T09:38:53.919Z,68.88
2023-04-29T09:40:59.439Z,69.93
2023-04-29T09:43:01.775Z,69.62
2023-04-29T09:45:03.671Z,69.79
2023-04-29T09:47:07.005Z,70.12
2023-04-29T09:49:23.375Z,67.93
2023-04-29T09:51:26.379Z,66.25
2023-04-29T09:53:29.320Z,67.83
2023-04-29T09:55:31.003Z,67.55
2023-04-29T09:57:41.523Z,67.41
2023-04-29T09:59:44.432Z,68.22
2023-04-29T10:01:48.829Z,67.20
2023-04-29T10:03:54.414Z,66.74
2023-04-29T10:05:57.272Z,65.05
2023-04-29T10:08:01.378Z,65.07
2023-04-29T10:10:06.225Z,64.01
2023-04-29T10:12:08.296Z,62.73
2023-04-29T10:14:13.395Z,61.88
2023-04-29T10:16:27.796Z,61.73
2023-04-29T10:18:36.267Z,61.00
2023-04-29T10:20:41.836Z,58.67
2023-04-29T10:22:46.724Z,59.34
2023-04-29T10:24:54.489Z,60.19
2023-04-29T10:26:57.298Z,57.84
2023-04-29T10:29:00.345Z,58.76
2023-04-29T10:31:02.988Z,57.60
2023-04-29T10:33:06.710Z,57.07
2023-04-29T10:35:10.517Z,56.97
2023-04-29T10:37:13.496Z,56.71
2023-04-29T10:39:26.945Z,56.30
2023-04-29T10:41:34.703Z,55.25
2023-04-29T10:43:36.676Z,54.70
2023-04-29T10:45:39.005Z,51.62
2023-04-29T10:47:40.855Z,53.93
2023-04-29T10:50:03.691Z,55.21
2023-04-29T10:52:06.148Z,53.33
2023-04-29T10:54:09.603Z,52.45
2023-04-29T10:56:11.356Z,49.78
2023-04-29T10:58:36.172Z,53.71
2023-04-29T11:00:38.262Z,50.31
2023-04-29T11:02:40.285Z,49.75
2023-04-29T11:05:09.373Z,50.66
2023-04-29T11:07:27.171Z,51.53
2023-04-29T11:09:30.104Z,48.21
2023-04-29T11:11:45.758Z,50.81
2023-04-29T11:13:48.727Z,47.44
2023-04-29T11:15:51.704Z,45.76
2023-04-29T11:17:53.351Z,44.86
2023-04-29T11:19:55.525Z,45.74
2023-04-29T11:22:13.262Z,47.04
2023-04-29T11:24:15.484Z,44.08
2023-04-29T11:26:19.718Z,44.61
2023-04-29T11:28:22.526Z,44.00
2023-04-29T11:30:28.889Z,45.83
2023-04-29T11:32:32.201Z,43.22
2023-04-29T11:34:34.093Z,43.30
2023-04-29T11:36:35.730Z,43.75
2023-04-29T11:38:40.290Z,43.13
2023-04-29T11:40:42.451Z,41.07
2023-04-29T11:42:45.556Z,41.41
2023-04-29T11:44:47.255Z,41.34
2023-04-29T11:46:50.532Z,40.95
2023-04-29T11:48:52.419Z,38.73
2023-04-29T11:50:59.286Z,39.42
2023-04-29T11:53:00.944Z,38.49
2023-04-29T11:55:03.425Z,38.87
2023-04-29T11:57:05.132Z,37.79
2023-04-29T11:59:07.042Z,39.05
2023-04-29T12:01:08.759Z,37.56
2023-04-29T12:03:15.995Z,38.49
2023-04-29T12:05:18.096Z,37.67
2023-04-29T12:07:20.159Z,37.90
2023-04-29T12:09:21.732Z,36.50
2023-04-29T12:11:23.884Z,36.51
2023-04-29T12:13:27.890Z,37.88
2023-04-29T12:15:30.254Z,37.30
2023-04-29T12:17:32.109Z,36.30
2023-04-29T12:19:35.494Z,35.91
2023-04-29T12:21:38.116Z,35.53
2023-04-29T12:23:41.451Z,35.01
2023-04-29T12:25:49.218Z,37.17
2023-04-29T12:27:51.174Z,34.00
2023-04-29T12:29:53.186Z,34.48
2023-04-29T12:31:56.693Z,34.16
2023-04-29T12:33:58.313Z,33.49
2023-04-29T12:36:02.242Z,33.66
2023-04-29T12:38:04.041Z,33.25
2023-04-29T12:40:07.470Z,32.90
2023-04-29T12:42:15.239Z,37.40
2023-04-29T12:44:17.233Z,33.21
2023-04-29T12:46:21.519Z,34.02
2023-04-29T12:48:32.725Z,36.15
2023-04-29T12:50:37.294Z,32.45
2023-04-29T12:52:40.250Z,32.35
2023-04-29T12:54:43.091Z,30.61
2023-04-29T12:56:44.792Z,31.38
2023-04-29T12:58:46.385Z,32.29
2023-04-29T13:00:48.122Z,33.08
2023-04-29T13:02:49.766Z,33.09
2023-04-29T13:04:51.897Z,32.78
2023-04-29T13:06:54.081Z,32.94
2023-04-29T13:08:57.156Z,32.36
2023-04-29T13:11:01.188Z,33.11
2023-04-29T13:13:03.330Z,31.35
2023-04-29T13:15:06.252Z,32.79
2023-04-29T13:17:08.017Z,31.89
2023-04-29T13:19:28.150Z,31.03
2023-04-29T13:21:31.379Z,29.10
2023-04-29T13:23:32.956Z,28.25
2023-04-29T13:25:36.354Z,29.59
2023-04-29T13:27:38.390Z,29.25
2023-04-29T13:29:40.284Z,27.42
2023-04-29T13:31:42.081Z,26.53
2023-04-29T13:33:43.988Z,28.87
2023-04-29T13:35:46.166Z,28.27
2023-04-29T13:37:47.988Z,29.17
2023-04-29T13:39:56.881Z,29.21
2023-04-29T13:42:00.729Z,29.33
2023-04-29T13:44:03.433Z,29.73
2023-04-29T13:46:07.717Z,29.62
2023-04-29T13:48:26.063Z,30.15
2023-04-29T13:59:36.182Z,28.60
2023-04-29T14:01:54.671Z,29.01
2023-04-29T14:03:35.892Z,30.88
2023-04-29T14:05:38.017Z,29.70
2023-04-29T14:07:40.023Z,29.55
2023-04-29T14:09:41.630Z,30.02
2023-04-29T14:12:02.882Z,32.97
2023-04-29T14:14:05.991Z,30.47
2023-04-29T14:16:08.779Z,29.47
2023-04-29T14:18:10.541Z,28.87
2023-04-29T14:20:13.528Z,30.52
2023-04-29T14:22:15.136Z,30.36
2023-04-29T14:24:16.750Z,29.10
2023-04-29T14:28:23.754Z,30.61
2023-04-29T14:30:26.977Z,29.25
2023-04-29T14:32:28.639Z,28.19
2023-04-29T14:34:30.264Z,27.72
2023-04-29T14:36:32.783Z,28.87
2023-04-29T14:38:34.571Z,28.76
2023-04-29T14:40:36.186Z,29.73
2023-04-29T14:42:39.330Z,29.30
2023-04-29T14:44:41.105Z,29.85
2023-04-29T14:46:44.273Z,29.47
2023-04-29T14:48:46.179Z,29.01
2023-04-29T14:50:48.015Z,30.84
2023-04-29T14:52:49.883Z,29.80
2023-04-29T14:54:51.596Z,28.74
2023-04-29T14:56:53.299Z,29.73
2023-04-29T14:58:55.772Z,29.85
2023-04-29T15:00:57.569Z,30.48
2023-04-29T15:03:02.187Z,31.03
2023-04-29T15:05:06.230Z,30.54
2023-04-29T15:07:07.818Z,29.28
2023-04-29T15:09:09.654Z,29.21
2023-04-29T15:11:11.639Z,29.23
2023-04-29T15:13:13.406Z,30.20
2023-04-29T15:15:15.271Z,29.96
2023-04-29T15:17:17.165Z,28.81
2023-04-29T15:19:20.477Z,29.19
2023-04-29T15:21:22.077Z,29.22
2023-04-29T15:23:26.010Z,28.95
2023-04-29T15:25:27.812Z,30.82
2023-04-29T15:27:29.615Z,29.83
2023-04-29T15:29:31.328Z,30.03
2023-04-29T15:31:33.206Z,30.53
2023-04-29T15:33:34.739Z,30.68
2023-04-29T15:35:37.833Z,30.41
2023-04-29T15:37:39.362Z,30.22
2023-04-29T15:39:41.143Z,31.05
2023-04-29T15:41:42.707Z,30.63
2023-04-29T15:43:44.341Z,30.39
2023-04-29T15:45:45.964Z,30.98
2023-04-29T15:47:47.679Z,30.93
2023-04-29T15:49:49.458Z,30.94
2023-04-29T15:51:52.402Z,30.60
2023-04-29T15:53:54.356Z,30.83
2023-04-29T15:55:56.033Z,30.51
2023-04-29T15:57:57.572Z,30.40
2023-04-29T15:59:59.209Z,30.96
2023-04-29T16:02:01.077Z,30.85
2023-04-29T16:04:03.085Z,31.19
2023-04-29T16:06:05.080Z,31.09
2023-04-29T16:08:08.441Z,31.51
2023-04-29T16:10:10.681Z,32.68
2023-04-29T16:12:12.804Z,32.78
2023-04-29T16:14:14.355Z,32.39
2023-04-29T16:16:15.993Z,32.39
2023-04-29T16:18:17.617Z,33.23
2023-04-29T16:20:19.514Z,33.74
2023-04-29T16:22:21.059Z,33.93
2023-04-29T16:24:24.208Z,33.89
2023-04-29T16:26:26.318Z,34.50
2023-04-29T16:28:28.146Z,34.22
2023-04-29T16:30:30.030Z,33.83
2023-04-29T16:32:31.891Z,34.47
2023-04-29T16:34:33.604Z,34.03
2023-04-29T16:36:35.831Z,34.63
2023-04-29T16:38:37.732Z,34.39
2023-04-29T16:40:40.776Z,34.57
2023-04-29T16:42:42.325Z,35.26
2023-04-29T16:44:44.012Z,35.13
2023-04-29T16:46:45.767Z,35.04
2023-04-29T16:48:47.862Z,35.05
2023-04-29T16:50:50.589Z,35.65
2023-04-29T16:52:52.391Z,36.12
2023-04-29T16:54:53.951Z,35.67
2023-04-29T16:56:57.038Z,35.33
2023-04-29T16:58:58.873Z,35.58
2023-04-29T17:01:00.766Z,35.99
2023-04-29T17:03:02.535Z,35.93
2023-04-29T17:05:04.545Z,36.30
2023-04-29T17:07:06.227Z,36.29
2023-04-29T17:09:08.193Z,36.15
2023-04-29T17:11:09.742Z,36.64
2023-04-29T17:13:12.840Z,37.00
2023-04-29T17:15:14.554Z,37.13
2023-04-29T17:17:16.345Z,37.17
2023-04-29T17:19:17.974Z,37.09
2023-04-29T17:21:19.596Z,37.05
2023-04-29T17:23:21.203Z,37.19
2023-04-29T17:25:23.263Z,37.64
2023-04-29T17:27:25.182Z,37.94
2023-04-29T17:29:28.363Z,37.22
2023-04-29T17:31:30.246Z,37.43
2023-04-29T17:33:31.984Z,37.32
2023-04-29T17:35:34.507Z,37.34
2023-04-29T17:37:36.495Z,37.36
2023-04-29T17:39:38.161Z,36.96
2023-04-29T17:41:39.828Z,37.15
2023-04-29T17:43:41.381Z,37.08
2023-04-29T17:45:44.816Z,37.17
2023-04-29T17:47:46.424Z,37.21
2023-04-29T17:49:48.146Z,37.38
2023-04-29T17:51:49.784Z,37.75
2023-04-29T17:53:51.690Z,38.17
2023-04-29T17:55:53.646Z,38.27
2023-04-29T17:57:55.666Z,38.63
2023-04-29T17:59:57.779Z,38.81
2023-04-29T18:02:01.022Z,39.46
2023-04-29T18:04:02.964Z,39.40
2023-04-29T18:06:05.245Z,39.69
2023-04-29T18:08:06.922Z,40.07
2023-04-29T18:10:09.259Z,40.25
2023-04-29T18:12:10.859Z,40.21
2023-04-29T18:14:12.461Z,40.35
2023-04-29T18:16:14.074Z,40.54
2023-04-29T18:18:17.227Z,40.89
2023-04-29T18:20:19.057Z,41.01
2023-04-29T18:22:20.628Z,41.22
2023-04-29T18:24:22.221Z,41.33
2023-04-29T18:26:24.042Z,41.36
2023-04-29T18:28:28.492Z,41.58
2023-04-29T18:30:30.647Z,41.79
2023-04-29T18:32:32.160Z,41.79
2023-04-29T18:34:35.176Z,41.66
2023-04-29T18:36:37.189Z,41.92
2023-04-29T18:38:38.992Z,42.04
2023-04-29T18:40:40.748Z,42.30
2023-04-29T18:42:42.428Z,42.79
2023-04-29T18:44:44.635Z,42.75
2023-04-29T18:46:46.558Z,42.56
2023-04-29T18:48:48.622Z,42.55
2023-04-29T18:50:53.468Z,43.00
2023-04-29T18:52:55.075Z,43.03
2023-04-29T18:54:56.944Z,43.75
2023-04-29T18:56:58.510Z,43.71
2023-04-29T18:59:00.140Z,43.92
2023-04-29T19:01:02.413Z,44.26
2023-04-29T19:03:04.934Z,44.28
2023-04-29T19:05:08.274Z,44.71
2023-04-29T19:07:11.329Z,45.08
2023-04-29T19:09:12.955Z,44.92
2023-04-29T19:11:14.766Z,44.91
2023-04-29T19:13:16.431Z,45.43
2023-04-29T19:15:18.286Z,45.08
2023-04-29T19:17:20.359Z,45.55
2023-04-29T19:19:22.245Z,45.68
2023-04-29T19:21:24.102Z,46.28
2023-04-29T19:23:29.993Z,45.52
2023-04-29T19:25:33.106Z,46.03
2023-04-29T19:27:35.104Z,46.33
2023-04-29T19:29:36.747Z,46.50
2023-04-29T19:31:38.612Z,46.40
2023-04-29T19:33:40.165Z,46.57
2023-04-29T19:35:41.693Z,46.66
2023-04-29T19:37:43.500Z,47.25
2023-04-29T19:39:46.686Z,46.85
2023-04-29T19:41:48.473Z,47.14
2023-04-29T19:43:49.990Z,46.90
2023-04-29T19:45:51.609Z,47.33
2023-04-29T19:47:53.259Z,47.83
2023-04-29T19:49:55.534Z,47.71
2023-04-29T19:51:57.322Z,47.89
2023-04-29T19:53:59.003Z,48.16
2023-04-29T19:56:02.053Z,47.89
2023-04-29T19:58:03.624Z,48.30
2023-04-29T20:00:06.684Z,48.54
2023-04-29T20:02:08.315Z,48.07
2023-04-29T20:04:11.966Z,48.70
2023-04-29T20:06:16.293Z,48.24
2023-04-29T20:08:17.906Z,48.58
2023-04-29T20:10:19.924Z,48.72
2023-04-29T20:12:22.788Z,49.25
2023-04-29T20:14:24.652Z,49.15
2023-04-29T20:16:26.886Z,49.77
2023-04-29T20:18:28.726Z,49.59
2023-04-29T20:20:30.788Z,49.82
2023-04-29T20:22:32.454Z,49.98
2023-04-29T20:24:34.280Z,49.82
2023-04-29T20:26:35.856Z,49.78
2023-04-29T20:28:38.842Z,49.87
2023-04-29T20:30:40.760Z,50.26
2023-04-29T20:32:42.345Z,50.19
2023-04-29T20:34:44.697Z,50.19
2023-04-29T20:36:46.304Z,50.33
2023-04-29T20:38:47.935Z,50.17
2023-04-29T20:40:52.770Z,50.41
2023-04-29T20:42:54.476Z,51.16
2023-04-29T20:44:59.010Z,50.61
2023-04-29T20:47:00.841Z,50.46
2023-04-29T20:49:04.857Z,50.46
2023-04-29T20:51:06.701Z,51.14
2023-04-29T20:53:08.565Z,50.53
2023-04-29T20:55:10.626Z,50.93
2023-04-29T20:57:12.428Z,50.54
2023-04-29T20:59:14.256Z,50.48
2023-04-29T21:01:17.648Z,51.17
2023-04-29T21:03:19.289Z,50.81
2023-04-29T21:05:23.495Z,51.23
2023-04-29T21:07:25.068Z,50.86
2023-04-29T21:09:26.737Z,50.55
2023-04-29T21:11:30.506Z,50.86
2023-04-29T21:13:32.178Z,50.23
2023-04-29T21:15:34.060Z,49.95
2023-04-29T21:17:37.318Z,50.22
2023-04-29T21:19:38.959Z,49.75
2023-04-29T21:21:40.578Z,50.32
2023-04-29T21:23:42.236Z,49.59
2023-04-29T21:25:43.824Z,49.33
2023-04-29T21:27:45.430Z,49.40
2023-04-29T21:29:46.983Z,48.23
2023-04-29T21:31:48.673Z,48.64
2023-04-29T21:33:51.847Z,48.77
2023-04-29T21:35:53.470Z,48.85
2023-04-29T21:37:55.645Z,48.77
2023-04-29T21:39:57.340Z,48.60
2023-04-29T21:41:59.274Z,48.36
2023-04-29T21:44:02.458Z,47.85
2023-04-29T21:46:07.067Z,47.64
2023-04-29T21:48:14.603Z,47.71
2023-04-29T21:50:17.725Z,47.40
2023-04-29T21:52:19.904Z,47.69
2023-04-29T21:54:22.003Z,47.25
2023-04-29T21:56:23.822Z,46.95
2023-04-29T21:58:25.869Z,47.50
2023-04-29T22:00:27.462Z,47.49
2023-04-29T22:02:29.305Z,46.72
2023-04-29T22:04:31.406Z,47.12
2023-04-29T22:06:34.637Z,47.64
2023-04-29T22:08:36.667Z,47.40
2023-04-29T22:10:39.158Z,47.77
2023-04-29T22:12:41.143Z,47.73
2023-04-29T22:14:46.594Z,47.83
2023-04-29T22:16:48.735Z,47.98
2023-04-29T22:18:50.775Z,47.55
2023-04-29T22:20:52.652Z,47.52
2023-04-29T22:22:56.004Z,47.56
2023-04-29T22:24:57.660Z,47.39
2023-04-29T22:26:59.713Z,47.74
2023-04-29T22:29:02.062Z,47.50
2023-04-29T22:31:03.994Z,47.72
2023-04-29T22:33:06.182Z,48.21
2023-04-29T22:35:08.246Z,48.06
2023-04-29T22:37:09.937Z,48.17
2023-04-29T22:39:12.893Z,48.68
2023-04-29T22:41:14.729Z,48.89
2023-04-29T22:43:16.673Z,48.37
2023-04-29T22:45:18.321Z,48.73
2023-04-29T22:47:20.452Z,48.84
2023-04-29T22:49:22.137Z,48.69
2023-04-29T22:51:23.659Z,49.07
2023-04-29T22:53:25.701Z,49.49
2023-04-29T22:55:28.702Z,49.34
2023-04-29T22:57:30.340Z,49.18
2023-04-29T22:59:32.198Z,49.41
2023-04-29T23:01:33.796Z,49.92
2023-04-29T23:03:35.396Z,49.40
2023-04-29T23:05:37.051Z,49.47
2023-04-29T23:07:38.633Z,49.91
2023-04-29T23:09:40.150Z,49.50
2023-04-29T23:11:43.273Z,49.61
2023-04-29T23:13:45.106Z,49.72
2023-04-29T23:15:46.774Z,50.35
2023-04-29T23:17:48.505Z,49.87
2023-04-29T23:19:50.142Z,50.03
2023-04-29T23:21:51.654Z,49.82
2023-04-29T23:23:53.344Z,50.28
2023-04-29T23:25:55.026Z,49.99
2023-04-29T23:27:58.336Z,50.12
2023-04-29T23:29:59.875Z,50.07
2023-04-29T23:32:01.999Z,50.59
2023-04-29T23:34:03.649Z,50.38
2023-04-29T23:36:06.190Z,50.43
2023-04-29T23:38:07.821Z,50.72
2023-04-29T23:40:10.158Z,51.05
2023-04-29T23:42:11.798Z,50.58
2023-04-29T23:44:15.341Z,51.52
2023-04-29T23:46:17.335Z,51.47
2023-04-29T23:48:18.850Z,51.50
2023-04-29T23:50:20.698Z,51.27
2023-04-29T23:52:22.466Z,51.63
2023-04-29T23:54:24.328Z,52.24
2023-04-29T23:56:26.107Z,52.46
2023-04-29T23:58:27.756Z,52.64
